sensor_id;sensor_type;location;lat;lon;timestamp;pressure;altitude;pressure_sealevel;temperature;humidity
66681;BME280;53575;51.366;12.350;2023-03-13T00:01:20;99519.38;;;6.79;100.00
66681;BME280;53575;51.366;12.350;2023-03-13T00:03:46;99513.31;;;6.74;100.00
66681;BME280;53575;51.366;12.350;2023-03-13T00:06:11;99520.22;;;6.77;100.00
66681;BME280;53575;51.366;12.350;2023-03-13T00:08:37;99520.25;;;6.71;100.00
66681;BME280;53575;51.366;12.350;2023-03-13T00:11:04;99518.50;;;6.77;100.00
66681;BME280;53575;51.366;12.350;2023-03-13T00:13:30;99511.63;;;6.66;100.00
66681;BME280;53575;51.366;12.350;2023-03-13T00:16:22;99504.66;;;6.83;100.00
66681;BME280;53575;51.366;12.350;2023-03-13T00:18:50;99508.13;;;6.71;100.00
66681;BME280;53575;51.366;12.350;2023-03-13T00:21:18;99502.09;;;6.66;100.00
66681;BME280;53575;51.366;12.350;2023-03-13T00:23:44;99509.88;;;6.72;100.00
66681;BME280;53575;51.366;12.350;2023-03-13T00:26:12;99497.72;;;6.79;100.00
66681;BME280;53575;51.366;12.350;2023-03-13T00:28:39;99500.31;;;6.77;100.00
66681;BME280;53575;51.366;12.350;2023-03-13T00:31:07;99495.13;;;6.77;100.00
66681;BME280;53575;51.366;12.350;2023-03-13T00:33:34;99489.03;;;6.84;100.00
66681;BME280;53575;51.366;12.350;2023-03-13T00:36:00;99493.41;;;6.73;100.00
66681;BME280;53575;51.366;12.350;2023-03-13T00:38:27;99493.44;;;6.72;100.00
66681;BME280;53575;51.366;12.350;2023-03-13T00:41:01;99489.03;;;6.84;100.00
66681;BME280;53575;51.366;12.350;2023-03-13T00:43:27;99495.09;;;6.91;100.00
66681;BME280;53575;51.366;12.350;2023-03-13T00:45:53;99489.03;;;6.89;100.00
66681;BME280;53575;51.366;12.350;2023-03-13T00:48:19;99486.41;;;6.89;100.00
66681;BME280;53575;51.366;12.350;2023-03-13T00:50:45;99493.31;;;6.96;100.00
66681;BME280;53575;51.366;12.350;2023-03-13T00:53:10;99484.59;;;7.11;100.00
66681;BME280;53575;51.366;12.350;2023-03-13T00:55:35;99489.78;;;7.08;100.00
66681;BME280;53575;51.366;12.350;2023-03-13T00:58:01;99488.94;;;7.06;100.00
66681;BME280;53575;51.366;12.350;2023-03-13T01:00:26;99487.13;;;7.22;100.00
66681;BME280;53575;51.366;12.350;2023-03-13T01:02:52;99485.31;;;7.31;99.25
66681;BME280;53575;51.366;12.350;2023-03-13T01:05:17;99479.28;;;7.29;98.89
66681;BME280;53575;51.366;12.350;2023-03-13T01:07:42;99481.03;;;7.24;99.42
66681;BME280;53575;51.366;12.350;2023-03-13T01:10:08;99468.91;;;7.26;99.01
66681;BME280;53575;51.366;12.350;2023-03-13T01:12:34;99472.34;;;7.30;99.06
66681;BME280;53575;51.366;12.350;2023-03-13T01:14:59;99474.00;;;7.42;98.20
66681;BME280;53575;51.366;12.350;2023-03-13T01:17:25;99471.28;;;7.60;97.17
66681;BME280;53575;51.366;12.350;2023-03-13T01:19:54;99468.78;;;7.48;97.56
66681;BME280;53575;51.366;12.350;2023-03-13T01:22:20;99460.09;;;7.46;97.72
66681;BME280;53575;51.366;12.350;2023-03-13T01:24:45;99455.72;;;7.54;97.15
66681;BME280;53575;51.366;12.350;2023-03-13T01:27:14;99450.56;;;7.46;97.25
66681;BME280;53575;51.366;12.350;2023-03-13T01:29:39;99442.84;;;7.37;97.84
66681;BME280;53575;51.366;12.350;2023-03-13T01:32:05;99438.44;;;7.44;97.00
66681;BME280;53575;51.366;12.350;2023-03-13T01:34:30;99436.69;;;7.49;97.05
66681;BME280;53575;51.366;12.350;2023-03-13T01:36:56;99434.13;;;7.43;97.44
66681;BME280;53575;51.366;12.350;2023-03-13T01:39:21;99428.97;;;7.38;97.86
66681;BME280;53575;51.366;12.350;2023-03-13T01:41:47;99424.63;;;7.42;97.15
66681;BME280;53575;51.366;12.350;2023-03-13T01:44:24;99426.16;;;7.63;95.69
66681;BME280;53575;51.366;12.350;2023-03-13T01:46:50;99421.03;;;7.56;95.66
66681;BME280;53575;51.366;12.350;2023-03-13T01:49:22;99426.22;;;7.55;95.40
66681;BME280;53575;51.366;12.350;2023-03-13T01:52:01;99425.38;;;7.54;95.50
66681;BME280;53575;51.366;12.350;2023-03-13T01:59:38;99408.81;;;7.68;94.06
66681;BME280;53575;51.366;12.350;2023-03-13T02:02:05;99407.97;;;7.63;94.12
66681;BME280;53575;51.366;12.350;2023-03-13T02:04:37;99408.78;;;7.69;93.86
66681;BME280;53575;51.366;12.350;2023-03-13T02:07:07;99406.13;;;7.78;93.51
66681;BME280;53575;51.366;12.350;2023-03-13T02:09:35;99401.78;;;7.76;93.43
66681;BME280;53575;51.366;12.350;2023-03-13T02:12:16;99404.31;;;7.84;92.56
66681;BME280;53575;51.366;12.350;2023-03-13T02:14:44;99412.97;;;7.86;92.46
66681;BME280;53575;51.366;12.350;2023-03-13T02:17:11;99417.28;;;7.88;92.20
66681;BME280;53575;51.366;12.350;2023-03-13T02:19:48;99401.63;;;7.94;91.68
66681;BME280;53575;51.366;12.350;2023-03-13T02:22:23;99391.22;;;7.93;91.67
66681;BME280;53575;51.366;12.350;2023-03-13T02:27:34;99384.31;;;7.89;91.96
66681;BME280;53575;51.366;12.350;2023-03-13T02:30:00;99376.53;;;7.87;91.93
66681;BME280;53575;51.366;12.350;2023-03-13T02:32:27;99367.81;;;7.94;91.86
66681;BME280;53575;51.366;12.350;2023-03-13T02:37:23;99360.03;;;7.90;92.17
66681;BME280;53575;51.366;12.350;2023-03-13T02:39:50;99344.50;;;7.84;92.29
66681;BME280;53575;51.366;12.350;2023-03-13T02:42:17;99354.81;;;7.90;92.47
66681;BME280;53575;51.366;12.350;2023-03-13T02:44:45;99341.84;;;7.88;92.07
66681;BME280;53575;51.366;12.350;2023-03-13T02:47:11;99345.22;;;7.98;92.03
66681;BME280;53575;51.366;12.350;2023-03-13T02:49:41;99346.06;;;7.97;91.91
66681;BME280;53575;51.366;12.350;2023-03-13T02:52:13;99336.63;;;7.90;92.49
66681;BME280;53575;51.366;12.350;2023-03-13T02:54:43;99333.06;;;7.97;91.94
66681;BME280;53575;51.366;12.350;2023-03-13T02:57:09;99327.06;;;7.92;92.04
66681;BME280;53575;51.366;12.350;2023-03-13T02:59:35;99330.53;;;7.92;92.20
66681;BME280;53575;51.366;12.350;2023-03-13T03:02:01;99333.16;;;7.89;92.48
66681;BME280;53575;51.366;12.350;2023-03-13T03:04:26;99321.84;;;7.93;92.47
66681;BME280;53575;51.366;12.350;2023-03-13T03:06:52;99317.53;;;7.92;92.01
66681;BME280;53575;51.366;12.350;2023-03-13T03:09:18;99312.31;;;7.92;92.23
66681;BME280;53575;51.366;12.350;2023-03-13T03:11:44;99302.00;;;7.86;92.57
66681;BME280;53575;51.366;12.350;2023-03-13T03:14:11;99298.50;;;7.86;92.90
66681;BME280;53575;51.366;12.350;2023-03-13T03:16:37;99301.06;;;7.92;92.45
66681;BME280;53575;51.366;12.350;2023-03-13T03:19:04;99280.22;;;7.93;92.24
66681;BME280;53575;51.366;12.350;2023-03-13T03:21:31;99277.59;;;7.98;92.15
66681;BME280;53575;51.366;12.350;2023-03-13T03:23:56;99279.22;;;8.03;91.71
66681;BME280;53575;51.366;12.350;2023-03-13T03:26:22;99280.13;;;8.02;91.39
66681;BME280;53575;51.366;12.350;2023-03-13T03:28:47;99272.31;;;8.01;91.72
66681;BME280;53575;51.366;12.350;2023-03-13T03:31:14;99273.13;;;8.04;91.41
66681;BME280;53575;51.366;12.350;2023-03-13T03:33:40;99256.59;;;8.10;91.18
66681;BME280;53575;51.366;12.350;2023-03-13T03:36:12;99264.41;;;8.09;91.23
66681;BME280;53575;51.366;12.350;2023-03-13T03:38:38;99254.00;;;8.10;91.14
66681;BME280;53575;51.366;12.350;2023-03-13T03:41:05;99251.41;;;8.10;91.12
66681;BME280;53575;51.366;12.350;2023-03-13T03:43:30;99249.59;;;8.15;90.94
66681;BME280;53575;51.366;12.350;2023-03-13T03:45:56;99251.41;;;8.10;91.11
66681;BME280;53575;51.366;12.350;2023-03-13T03:48:22;99247.84;;;8.17;90.81
66681;BME280;53575;51.366;12.350;2023-03-13T03:50:47;99239.19;;;8.15;90.92
66681;BME280;53575;51.366;12.350;2023-03-13T03:53:13;99243.56;;;8.12;91.17
66681;BME280;53575;51.366;12.350;2023-03-13T03:55:39;99233.09;;;8.18;91.06
66681;BME280;53575;51.366;12.350;2023-03-13T03:58:04;99222.78;;;8.09;91.54
66681;BME280;53575;51.366;12.350;2023-03-13T04:00:29;99221.91;;;8.10;91.40
66681;BME280;53575;51.366;12.350;2023-03-13T04:02:55;99219.44;;;8.00;92.01
66681;BME280;53575;51.366;12.350;2023-03-13T04:05:21;99221.09;;;8.06;91.84
66681;BME280;53575;51.366;12.350;2023-03-13T04:07:47;99211.69;;;7.96;92.38
66681;BME280;53575;51.366;12.350;2023-03-13T04:10:12;99206.41;;;8.00;92.57
66681;BME280;53575;51.366;12.350;2023-03-13T04:12:38;99208.03;;;8.11;91.78
66681;BME280;53575;51.366;12.350;2023-03-13T04:15:04;99197.75;;;8.01;92.23
66681;BME280;53575;51.366;12.350;2023-03-13T04:17:30;99201.25;;;7.99;92.56
66681;BME280;53575;51.366;12.350;2023-03-13T04:19:55;99196.03;;;7.97;92.63
66681;BME280;53575;51.366;12.350;2023-03-13T04:22:21;99188.25;;;7.97;92.96
66681;BME280;53575;51.366;12.350;2023-03-13T04:24:46;99192.47;;;8.06;92.61
66681;BME280;53575;51.366;12.350;2023-03-13T04:27:12;99180.34;;;8.05;92.55
66681;BME280;53575;51.366;12.350;2023-03-13T04:29:37;99179.44;;;8.09;92.16
66681;BME280;53575;51.366;12.350;2023-03-13T04:32:03;99171.56;;;8.12;92.27
66681;BME280;53575;51.366;12.350;2023-03-13T04:34:28;99161.25;;;8.04;92.47
66681;BME280;53575;51.366;12.350;2023-03-13T04:36:54;99156.88;;;8.08;92.53
66681;BME280;53575;51.366;12.350;2023-03-13T04:39:19;99162.78;;;8.21;92.44
66681;BME280;53575;51.366;12.350;2023-03-13T04:41:52;99150.75;;;8.12;92.67
66681;BME280;53575;51.366;12.350;2023-03-13T04:44:17;99136.00;;;8.13;93.11
66681;BME280;53575;51.366;12.350;2023-03-13T04:46:43;99136.91;;;8.10;93.02
66681;BME280;53575;51.366;12.350;2023-03-13T04:49:09;99138.56;;;8.16;93.00
66681;BME280;53575;51.366;12.350;2023-03-13T04:51:34;99130.78;;;8.14;93.45
66681;BME280;53575;51.366;12.350;2023-03-13T04:53:59;99126.59;;;8.05;93.52
66681;BME280;53575;51.366;12.350;2023-03-13T04:56:26;99114.31;;;8.12;93.84
66681;BME280;53575;51.366;12.350;2023-03-13T04:58:51;99107.38;;;8.14;93.41
66681;BME280;53575;51.366;12.350;2023-03-13T05:01:18;99095.13;;;8.21;93.30
66681;BME280;53575;51.366;12.350;2023-03-13T05:03:43;99092.53;;;8.21;93.53
66681;BME280;53575;51.366;12.350;2023-03-13T05:06:09;99102.94;;;8.21;93.21
66681;BME280;53575;51.366;12.350;2023-03-13T05:08:34;99091.72;;;8.17;93.74
66681;BME280;53575;51.366;12.350;2023-03-13T05:11:01;99084.75;;;8.18;93.46
66681;BME280;53575;51.366;12.350;2023-03-13T05:13:27;99086.50;;;8.17;93.96
66681;BME280;53575;51.366;12.350;2023-03-13T05:15:52;99075.16;;;8.21;93.97
66681;BME280;53575;51.366;12.350;2023-03-13T05:18:17;99076.69;;;8.33;93.12
66681;BME280;53575;51.366;12.350;2023-03-13T05:20:43;99061.16;;;8.28;93.51
66681;BME280;53575;51.366;12.350;2023-03-13T05:23:08;99066.41;;;8.25;93.85
66681;BME280;53575;51.366;12.350;2023-03-13T05:25:34;99045.47;;;8.31;93.70
66681;BME280;53575;51.366;12.350;2023-03-13T05:27:59;99048.25;;;8.22;94.04
66681;BME280;53575;51.366;12.350;2023-03-13T05:30:25;99035.41;;;8.12;94.85
66681;BME280;53575;51.366;12.350;2023-03-13T05:32:50;99025.03;;;8.10;94.88
66681;BME280;53575;51.366;12.350;2023-03-13T05:35:16;99019.66;;;8.21;94.80
66681;BME280;53575;51.366;12.350;2023-03-13T05:37:42;99013.34;;;8.34;93.94
66681;BME280;53575;51.366;12.350;2023-03-13T05:40:08;99013.50;;;8.25;94.23
66681;BME280;53575;51.366;12.350;2023-03-13T05:42:34;99003.94;;;8.25;94.44
66681;BME280;53575;51.366;12.350;2023-03-13T05:44:59;98990.94;;;8.25;94.23
66681;BME280;53575;51.366;12.350;2023-03-13T05:47:25;98992.63;;;8.28;94.41
66681;BME280;53575;51.366;12.350;2023-03-13T05:49:50;98989.16;;;8.27;94.63
66681;BME280;53575;51.366;12.350;2023-03-13T05:52:16;98978.88;;;8.21;94.77
66681;BME280;53575;51.366;12.350;2023-03-13T05:54:41;98977.22;;;8.17;95.35
66681;BME280;53575;51.366;12.350;2023-03-13T05:57:07;98971.72;;;8.33;95.06
66681;BME280;53575;51.366;12.350;2023-03-13T05:59:32;98969.06;;;8.37;94.43
66681;BME280;53575;51.366;12.350;2023-03-13T06:01:58;98953.47;;;8.36;94.51
66681;BME280;53575;51.366;12.350;2023-03-13T06:04:23;98951.72;;;8.36;94.85
66681;BME280;53575;51.366;12.350;2023-03-13T06:06:48;98950.91;;;8.33;95.26
66681;BME280;53575;51.366;12.350;2023-03-13T06:09:14;98944.69;;;8.41;95.98
66681;BME280;53575;51.366;12.350;2023-03-13T06:11:40;98937.59;;;8.49;96.35
66681;BME280;53575;51.366;12.350;2023-03-13T06:14:06;98936.09;;;8.38;97.20
66681;BME280;53575;51.366;12.350;2023-03-13T06:16:31;98941.03;;;8.50;96.97
66681;BME280;53575;51.366;12.350;2023-03-13T06:18:57;98934.97;;;8.49;96.98
66681;BME280;53575;51.366;12.350;2023-03-13T06:21:23;98941.78;;;8.57;97.00
66681;BME280;53575;51.366;12.350;2023-03-13T06:23:48;98935.44;;;8.70;97.03
66681;BME280;53575;51.366;12.350;2023-03-13T06:26:13;98939.88;;;8.66;97.08
66681;BME280;53575;51.366;12.350;2023-03-13T06:28:39;98930.22;;;8.70;97.58
66681;BME280;53575;51.366;12.350;2023-03-13T06:31:06;98921.59;;;8.68;97.51
66681;BME280;53575;51.366;12.350;2023-03-13T06:33:32;98923.31;;;8.69;98.68
66681;BME280;53575;51.366;12.350;2023-03-13T06:35:59;98914.44;;;8.77;98.95
66681;BME280;53575;51.366;12.350;2023-03-13T06:38:26;98907.50;;;8.78;98.25
66681;BME280;53575;51.366;12.350;2023-03-13T06:40:52;98907.41;;;8.81;98.43
66681;BME280;53575;51.366;12.350;2023-03-13T06:43:18;98897.66;;;8.91;98.71
66681;BME280;53575;51.366;12.350;2023-03-13T06:45:44;98896.81;;;8.89;98.14
66681;BME280;53575;51.366;12.350;2023-03-13T06:48:09;98906.22;;;8.96;97.54
66681;BME280;53575;51.366;12.350;2023-03-13T06:50:39;98905.44;;;8.92;97.56
66681;BME280;53575;51.366;12.350;2023-03-13T06:53:04;98914.94;;;8.95;97.48
66681;BME280;53575;51.366;12.350;2023-03-13T06:55:29;98914.66;;;9.07;96.60
66681;BME280;53575;51.366;12.350;2023-03-13T06:57:55;98926.59;;;9.17;96.13
66681;BME280;53575;51.366;12.350;2023-03-13T07:00:21;98925.03;;;9.10;96.27
66681;BME280;53575;51.366;12.350;2023-03-13T07:02:46;98911.75;;;9.19;95.87
66681;BME280;53575;51.366;12.350;2023-03-13T07:05:11;98915.38;;;9.14;96.11
66681;BME280;53575;51.366;12.350;2023-03-13T07:07:39;98910.13;;;9.15;95.97
66681;BME280;53575;51.366;12.350;2023-03-13T07:10:05;98906.56;;;9.19;96.34
66681;BME280;53575;51.366;12.350;2023-03-13T07:12:30;98914.19;;;9.27;95.31
66681;BME280;53575;51.366;12.350;2023-03-13T07:14:56;98903.59;;;9.35;94.81
66681;BME280;53575;51.366;12.350;2023-03-13T07:17:21;98899.25;;;9.35;94.85
66681;BME280;53575;51.366;12.350;2023-03-13T07:19:47;98894.00;;;9.37;94.73
66681;BME280;53575;51.366;12.350;2023-03-13T07:22:12;98878.13;;;9.46;94.10
66681;BME280;53575;51.366;12.350;2023-03-13T07:24:37;98882.47;;;9.47;94.03
66681;BME280;53575;51.366;12.350;2023-03-13T07:27:03;98874.50;;;9.51;93.66
66681;BME280;53575;51.366;12.350;2023-03-13T07:29:28;98860.50;;;9.56;93.17
66681;BME280;53575;51.366;12.350;2023-03-13T07:31:53;98857.78;;;9.60;93.11
66681;BME280;53575;51.366;12.350;2023-03-13T07:34:19;98858.22;;;9.77;92.61
66681;BME280;53575;51.366;12.350;2023-03-13T07:36:44;98861.41;;;9.87;91.85
66681;BME280;53575;51.366;12.350;2023-03-13T07:39:10;98876.09;;;9.91;91.97
66681;BME280;53575;51.366;12.350;2023-03-13T07:41:35;98872.47;;;9.97;91.45
66681;BME280;53575;51.366;12.350;2023-03-13T07:44:00;98873.00;;;10.10;91.14
66681;BME280;53575;51.366;12.350;2023-03-13T07:46:26;98870.34;;;10.11;91.61
66681;BME280;53575;51.366;12.350;2023-03-13T07:48:52;98855.28;;;10.21;90.63
66681;BME280;53575;51.366;12.350;2023-03-13T07:51:22;98853.19;;;10.34;90.10
66681;BME280;53575;51.366;12.350;2023-03-13T07:53:48;98856.50;;;10.40;89.77
66681;BME280;53575;51.366;12.350;2023-03-13T07:56:16;98844.06;;;10.48;89.54
66681;BME280;53575;51.366;12.350;2023-03-13T07:58:42;98849.97;;;10.55;89.29
66681;BME280;53575;51.366;12.350;2023-03-13T08:01:14;98842.84;;;10.60;88.88
66681;BME280;53575;51.366;12.350;2023-03-13T08:03:40;98859.19;;;10.68;88.40
66681;BME280;53575;51.366;12.350;2023-03-13T08:06:09;98860.78;;;10.72;88.68
66681;BME280;53575;51.366;12.350;2023-03-13T08:08:36;98863.22;;;10.79;88.24
66681;BME280;53575;51.366;12.350;2023-03-13T08:11:04;98861.56;;;10.76;88.53
66681;BME280;53575;51.366;12.350;2023-03-13T08:13:31;98870.34;;;10.73;88.47
66681;BME280;53575;51.366;12.350;2023-03-13T08:16:22;98867.91;;;10.67;89.29
66681;BME280;53575;51.366;12.350;2023-03-13T08:18:51;98855.81;;;10.63;89.30
66681;BME280;53575;51.366;12.350;2023-03-13T08:21:19;98859.28;;;10.64;89.86
66681;BME280;53575;51.366;12.350;2023-03-13T08:23:45;98852.50;;;10.58;90.19
66681;BME280;53575;51.366;12.350;2023-03-13T08:26:19;98858.44;;;10.63;89.72
66681;BME280;53575;51.366;12.350;2023-03-13T08:28:47;98850.69;;;10.60;90.28
66681;BME280;53575;51.366;12.350;2023-03-13T08:31:37;98843.72;;;10.61;90.10
66681;BME280;53575;51.366;12.350;2023-03-13T08:34:03;98846.28;;;10.62;90.80
66681;BME280;53575;51.366;12.350;2023-03-13T08:36:36;98853.50;;;10.54;91.67
66681;BME280;53575;51.366;12.350;2023-03-13T08:39:08;98848.19;;;10.57;92.07
66681;BME280;53575;51.366;12.350;2023-03-13T08:41:35;98851.69;;;10.56;91.88
66681;BME280;53575;51.366;12.350;2023-03-13T08:44:01;98859.50;;;10.58;91.81
66681;BME280;53575;51.366;12.350;2023-03-13T08:46:32;98868.81;;;10.66;91.68
66681;BME280;53575;51.366;12.350;2023-03-13T08:48:58;98867.03;;;10.67;91.34
66681;BME280;53575;51.366;12.350;2023-03-13T08:51:25;98866.09;;;10.69;91.03
66681;BME280;53575;51.366;12.350;2023-03-13T08:53:52;98867.66;;;10.75;91.01
66681;BME280;53575;51.366;12.350;2023-03-13T08:56:22;98869.09;;;10.85;90.38
66681;BME280;53575;51.366;12.350;2023-03-13T08:58:49;98874.03;;;10.94;90.21
66681;BME280;53575;51.366;12.350;2023-03-13T09:01:15;98873.94;;;10.97;89.92
66681;BME280;53575;51.366;12.350;2023-03-13T09:03:41;98865.25;;;10.97;89.89
66681;BME280;53575;51.366;12.350;2023-03-13T09:06:09;98866.09;;;10.99;89.89
66681;BME280;53575;51.366;12.350;2023-03-13T09:08:36;98857.09;;;11.08;89.84
66681;BME280;53575;51.366;12.350;2023-03-13T09:11:07;98851.63;;;11.15;89.86
66681;BME280;53575;51.366;12.350;2023-03-13T09:13:36;98871.69;;;11.15;89.68
66681;BME280;53575;51.366;12.350;2023-03-13T09:16:07;98868.00;;;11.20;89.06
66681;BME280;53575;51.366;12.350;2023-03-13T09:18:33;98853.78;;;11.29;89.02
66681;BME280;53575;51.366;12.350;2023-03-13T09:21:00;98843.38;;;11.28;89.25
66681;BME280;53575;51.366;12.350;2023-03-13T09:23:26;98841.44;;;11.33;89.13
66681;BME280;53575;51.366;12.350;2023-03-13T09:25:53;98844.72;;;11.39;89.07
66681;BME280;53575;51.366;12.350;2023-03-13T09:28:19;98850.31;;;11.55;88.69
66681;BME280;53575;51.366;12.350;2023-03-13T09:30:45;98846.53;;;11.64;88.44
66681;BME280;53575;51.366;12.350;2023-03-13T09:33:10;98846.31;;;11.70;88.39
66681;BME280;53575;51.366;12.350;2023-03-13T09:35:39;98839.91;;;11.79;88.24
66681;BME280;53575;51.366;12.350;2023-03-13T09:38:05;98844.97;;;11.85;87.70
66681;BME280;53575;51.366;12.350;2023-03-13T09:40:40;98837.66;;;11.94;87.31
66681;BME280;53575;51.366;12.350;2023-03-13T09:43:18;98838.13;;;12.06;86.88
66681;BME280;53575;51.366;12.350;2023-03-13T09:45:48;98838.06;;;12.07;86.92
66681;BME280;53575;51.366;12.350;2023-03-13T09:48:28;98839.78;;;12.08;86.90
66681;BME280;53575;51.366;12.350;2023-03-13T09:56:04;98852.47;;;12.19;86.70
66681;BME280;53575;51.366;12.350;2023-03-13T09:58:32;98869.91;;;12.20;86.66
66681;BME280;53575;51.366;12.350;2023-03-13T10:01:04;98865.78;;;12.13;87.37
66681;BME280;53575;51.366;12.350;2023-03-13T10:03:47;98871.66;;;12.19;87.08
66681;BME280;53575;51.366;12.350;2023-03-13T10:06:19;98863.16;;;12.13;87.57
66681;BME280;53575;51.366;12.350;2023-03-13T10:08:45;98850.97;;;12.13;87.65
66681;BME280;53575;51.366;12.350;2023-03-13T10:11:31;98850.16;;;12.11;88.24
66681;BME280;53575;51.366;12.350;2023-03-13T10:14:21;98836.97;;;12.13;88.27
66681;BME280;53575;51.366;12.350;2023-03-13T10:17:09;98834.38;;;12.13;88.60
66681;BME280;53575;51.366;12.350;2023-03-13T10:19:40;98838.53;;;12.18;88.34
66681;BME280;53575;51.366;12.350;2023-03-13T10:22:27;98833.19;;;12.22;88.37
66681;BME280;53575;51.366;12.350;2023-03-13T10:25:03;98841.09;;;12.20;88.83
66681;BME280;53575;51.366;12.350;2023-03-13T10:27:31;98836.66;;;12.22;88.87
66681;BME280;53575;51.366;12.350;2023-03-13T10:30:18;98838.47;;;12.20;88.83
66681;BME280;53575;51.366;12.350;2023-03-13T10:32:46;98848.75;;;12.26;88.83
66681;BME280;53575;51.366;12.350;2023-03-13T10:35:20;98845.00;;;12.33;88.82
66681;BME280;53575;51.366;12.350;2023-03-13T10:37:46;98847.44;;;12.38;88.59
66681;BME280;53575;51.366;12.350;2023-03-13T10:42:43;98861.00;;;12.49;88.26
66681;BME280;53575;51.366;12.350;2023-03-13T10:45:14;98833.84;;;12.52;88.27
66681;BME280;53575;51.366;12.350;2023-03-13T10:47:40;98827.38;;;12.60;87.61
66681;BME280;53575;51.366;12.350;2023-03-13T10:50:06;98830.66;;;12.65;87.79
66681;BME280;53575;51.366;12.350;2023-03-13T10:52:35;98812.53;;;12.83;87.23
66681;BME280;53575;51.366;12.350;2023-03-13T10:55:08;98808.75;;;12.90;86.95
66681;BME280;53575;51.366;12.350;2023-03-13T10:57:35;98808.25;;;13.02;86.59
66681;BME280;53575;51.366;12.350;2023-03-13T11:02:47;98791.09;;;13.15;86.10
66681;BME280;53575;51.366;12.350;2023-03-13T11:07:48;98752.47;;;13.41;85.22
66681;BME280;53575;51.366;12.350;2023-03-13T11:10:28;98771.75;;;13.60;84.38
66681;BME280;53575;51.366;12.350;2023-03-13T11:13:01;98737.03;;;13.74;83.92
66681;BME280;53575;51.366;12.350;2023-03-13T11:15:47;98732.16;;;13.85;83.18
66681;BME280;53575;51.366;12.350;2023-03-13T11:18:23;98738.63;;;13.97;82.54
66681;BME280;53575;51.366;12.350;2023-03-13T11:20:55;98743.31;;;14.09;82.01
66681;BME280;53575;51.366;12.350;2023-03-13T11:23:28;98730.56;;;14.21;81.44
66681;BME280;53575;51.366;12.350;2023-03-13T11:26:11;98735.81;;;14.21;80.89
66681;BME280;53575;51.366;12.350;2023-03-13T11:31:12;98725.53;;;14.35;80.93
66681;BME280;53575;51.366;12.350;2023-03-13T11:33:54;98740.94;;;14.43;80.54
66681;BME280;53575;51.366;12.350;2023-03-13T11:36:59;98716.63;;;14.56;79.92
66681;BME280;53575;51.366;12.350;2023-03-13T11:42:11;98726.88;;;14.80;79.00
66681;BME280;53575;51.366;12.350;2023-03-13T11:45:02;98718.53;;;14.72;78.81
66681;BME280;53575;51.366;12.350;2023-03-13T11:47:44;98720.34;;;14.89;78.36
66681;BME280;53575;51.366;12.350;2023-03-13T11:52:56;98724.16;;;15.35;76.39
66681;BME280;53575;51.366;12.350;2023-03-13T11:55:28;98720.25;;;15.59;74.68
66681;BME280;53575;51.366;12.350;2023-03-13T12:00:56;98723.16;;;16.37;71.57
66681;BME280;53575;51.366;12.350;2023-03-13T12:03:43;98714.38;;;16.68;70.59
66681;BME280;53575;51.366;12.350;2023-03-13T12:06:23;98735.31;;;16.87;69.17
66681;BME280;53575;51.366;12.350;2023-03-13T12:08:56;98709.97;;;17.15;68.07
66681;BME280;53575;51.366;12.350;2023-03-13T12:11:32;98727.53;;;17.30;67.76
66681;BME280;53575;51.366;12.350;2023-03-13T12:16:45;98692.75;;;16.62;69.98
66681;BME280;53575;51.366;12.350;2023-03-13T12:19:16;98690.13;;;16.62;69.84
66681;BME280;53575;51.366;12.350;2023-03-13T12:21:49;98694.13;;;16.69;69.06
66681;BME280;53575;51.366;12.350;2023-03-13T12:24:39;98675.50;;;16.72;69.08
66681;BME280;53575;51.366;12.350;2023-03-13T12:27:26;98671.91;;;16.89;68.97
66681;BME280;53575;51.366;12.350;2023-03-13T12:30:26;98686.09;;;16.70;69.65
66681;BME280;53575;51.366;12.350;2023-03-13T12:35:30;98679.31;;;15.87;72.45
66681;BME280;53575;51.366;12.350;2023-03-13T12:38:04;98686.19;;;15.74;73.43
66681;BME280;53575;51.366;12.350;2023-03-13T12:40:40;98659.25;;;15.69;73.79
66681;BME280;53575;51.366;12.350;2023-03-13T12:43:22;98669.22;;;15.62;74.02
66681;BME280;53575;51.366;12.350;2023-03-13T12:54:12;98677.22;;;15.26;75.04
66681;BME280;53575;51.366;12.350;2023-03-13T12:59:38;98663.06;;;15.28;75.43
66681;BME280;53575;51.366;12.350;2023-03-13T13:02:17;98661.69;;;15.39;75.30
66681;BME280;53575;51.366;12.350;2023-03-13T13:04:46;98656.84;;;15.47;74.86
66681;BME280;53575;51.366;12.350;2023-03-13T13:07:33;98649.72;;;15.49;75.37
66681;BME280;53575;51.366;12.350;2023-03-13T13:12:34;98649.97;;;15.44;75.56
66681;BME280;53575;51.366;12.350;2023-03-13T13:15:15;98655.88;;;15.32;76.06
66681;BME280;53575;51.366;12.350;2023-03-13T13:17:46;98657.06;;;15.26;76.01
66681;BME280;53575;51.366;12.350;2023-03-13T13:20:36;98644.41;;;15.33;75.76
66681;BME280;53575;51.366;12.350;2023-03-13T13:23:26;98646.56;;;15.42;75.47
66681;BME280;53575;51.366;12.350;2023-03-13T13:25:55;98634.84;;;15.48;75.52
66681;BME280;53575;51.366;12.350;2023-03-13T13:28:39;98635.81;;;15.63;74.88
66681;BME280;53575;51.366;12.350;2023-03-13T13:31:44;98632.66;;;15.73;74.38
66681;BME280;53575;51.366;12.350;2023-03-13T13:37:01;98632.66;;;15.56;74.65
66681;BME280;53575;51.366;12.350;2023-03-13T13:39:43;98625.97;;;15.50;74.43
66681;BME280;53575;51.366;12.350;2023-03-13T13:47:40;98619.84;;;15.50;74.21
66681;BME280;53575;51.366;12.350;2023-03-13T13:52:47;98606.56;;;15.69;73.60
66681;BME280;53575;51.366;12.350;2023-03-13T13:57:57;98611.28;;;15.62;74.24
66681;BME280;53575;51.366;12.350;2023-03-13T14:00:28;98612.00;;;15.66;73.91
66681;BME280;53575;51.366;12.350;2023-03-13T14:02:59;98604.13;;;15.64;74.21
66681;BME280;53575;51.366;12.350;2023-03-13T14:05:30;98590.53;;;15.73;73.83
66681;BME280;53575;51.366;12.350;2023-03-13T14:08:05;98591.22;;;15.77;73.83
66681;BME280;53575;51.366;12.350;2023-03-13T14:10:40;98603.84;;;15.86;73.46
66681;BME280;53575;51.366;12.350;2023-03-13T14:13:15;98597.84;;;15.84;73.24